createdAt,value
2019-04-27T00:31:13.233Z,12.53
2019-04-27T00:33:43.356Z,17.07
2019-04-27T00:36:16.326Z,9.45
2019-04-27T00:38:56.090Z,11.38
2019-04-27T02:22:29.746Z,15.55
2019-04-27T03:07:50.541Z,11.05
2019-04-27T03:23:43.557Z,12.95
2019-04-27T03:26:19.613Z,18.95
2019-04-27T03:28:46.820Z,16.40
2019-04-27T03:31:16.422Z,16.02
2019-04-27T03:33:45.110Z,17.80
2019-04-27T03:36:13.726Z,19.52
2019-04-27T03:38:42.965Z,20.17
2019-04-27T03:41:12.189Z,13.50
2019-04-27T03:43:40.746Z,17.62
2019-04-27T03:46:10.291Z,19.98
2019-04-27T03:48:40.458Z,16.50
2019-04-27T03:51:19.953Z,16.17
2019-04-27T03:54:00.467Z,13.75
2019-04-27T03:56:35.714Z,12.58
2019-04-27T03:59:10.146Z,12.33
2019-04-27T04:01:39.359Z,11.75
2019-04-27T04:04:05.997Z,16.20
2019-04-27T04:06:34.621Z,14.33
2019-04-27T04:24:20.157Z,18.70
2019-04-27T04:26:50.293Z,18.05
2019-04-27T04:29:20.077Z,19.42
2019-04-27T04:31:50.017Z,19.07
2019-04-27T04:34:15.964Z,19.23
2019-04-27T04:36:44.557Z,21.10
2019-04-27T04:39:13.135Z,19.23
2019-04-27T04:41:50.656Z,18.25
2019-04-27T04:44:36.779Z,13.43
2019-04-27T04:47:30.579Z,15.48
2019-04-27T04:50:10.341Z,17.35
2019-04-27T04:52:29.277Z,24.37
2019-04-27T04:54:55.375Z,18.52
2019-04-27T04:57:23.967Z,20.85
2019-04-27T04:59:53.496Z,19.82
2019-04-27T05:02:22.200Z,18.32
2019-04-27T06:15:26.645Z,13.83
2019-04-27T06:17:55.486Z,16.77
2019-04-27T06:20:24.227Z,18.17
2019-04-27T06:22:52.753Z,15.13
2019-04-27T06:25:21.931Z,17.65
2019-04-27T06:27:50.350Z,21.60
2019-04-27T06:30:19.621Z,21.48
2019-04-27T06:32:49.477Z,16.32
2019-04-27T06:35:18.651Z,21.93
2019-04-27T06:37:49.268Z,18.77
2019-04-27T06:40:16.649Z,22.00
2019-04-27T06:42:45.282Z,21.42
2019-04-27T06:45:14.025Z,17.77
2019-04-27T06:47:42.581Z,18.05
2019-04-27T06:50:11.333Z,17.15
2019-04-27T06:52:40.401Z,16.27
2019-04-27T06:55:09.408Z,18.12
2019-04-27T06:57:39.098Z,15.23
2019-04-27T07:00:06.433Z,12.53
2019-04-27T07:02:36.609Z,18.42
2019-04-27T07:05:05.289Z,13.95
2019-04-27T07:07:33.797Z,16.12
2019-04-27T07:10:02.349Z,20.27
2019-04-27T07:12:31.185Z,14.95
2019-04-27T07:14:59.960Z,24.12
2019-04-27T07:17:29.063Z,20.17
2019-04-27T07:19:59.245Z,18.55
2019-04-27T07:22:26.876Z,22.25
2019-04-27T07:24:55.739Z,20.95
2019-04-27T07:27:24.814Z,18.20
2019-04-27T07:29:53.728Z,18.32
2019-04-27T07:32:22.304Z,19.70
2019-04-27T07:34:55.082Z,16.70
2019-04-27T07:37:22.034Z,16.97
2019-04-27T07:39:50.773Z,17.62
2019-04-27T07:42:21.895Z,15.00
2019-04-27T07:44:56.016Z,23.57
2019-04-27T07:47:26.548Z,21.25
2019-04-27T07:49:55.397Z,14.55
2019-04-27T07:52:24.004Z,21.15
2019-04-27T07:54:53.593Z,15.28
2019-04-27T07:57:22.285Z,13.30
2019-04-27T07:59:52.171Z,17.73
2019-04-27T08:02:20.992Z,19.00
2019-04-27T08:04:50.533Z,24.47
2019-04-27T08:07:19.597Z,19.75
2019-04-27T08:09:49.301Z,21.82
2019-04-27T08:12:16.072Z,12.15
2019-04-27T08:14:44.632Z,19.62
2019-04-27T08:17:13.377Z,16.60
2019-04-27T08:19:42.061Z,23.32
2019-04-27T08:22:11.753Z,13.37
2019-04-27T08:24:42.216Z,20.23
2019-04-27T08:27:19.322Z,13.75
2019-04-27T08:30:01.808Z,20.90
2019-04-27T08:32:35.392Z,23.52
2019-04-27T08:35:04.812Z,16.93
2019-04-27T08:37:34.484Z,17.50
2019-04-27T08:40:04.808Z,18.05
2019-04-27T08:42:34.052Z,18.20
2019-04-27T08:45:04.740Z,15.75
2019-04-27T08:47:33.468Z,18.95
2019-04-27T08:50:02.980Z,16.37
2019-04-27T08:52:31.796Z,18.87
2019-04-27T08:55:00.476Z,20.65
2019-04-27T08:57:30.720Z,17.85
2019-04-27T08:59:59.763Z,18.98
2019-04-27T09:02:41.128Z,17.12
2019-04-27T09:07:43.285Z,23.50
2019-04-27T09:10:18.749Z,14.70
2019-04-27T09:13:23.617Z,17.10
2019-04-27T09:15:57.881Z,18.85
2019-04-27T09:18:29.089Z,19.12
2019-04-27T09:20:59.449Z,19.23
2019-04-27T09:23:28.683Z,18.98
2019-04-27T09:25:59.495Z,20.00
2019-04-27T09:28:27.264Z,15.20
2019-04-27T09:33:41.405Z,19.07
2019-04-27T09:36:10.692Z,18.10
2019-04-27T09:38:40.585Z,16.90
2019-04-27T09:41:11.186Z,18.12
2019-04-27T09:43:40.565Z,18.73
2019-04-27T09:46:10.295Z,14.65
2019-04-27T09:48:40.873Z,18.05
2019-04-27T09:51:09.743Z,15.72
2019-04-27T09:53:39.626Z,17.25
2019-04-27T09:56:10.738Z,28.98
2019-04-27T09:58:39.664Z,18.87
2019-04-27T10:01:09.224Z,17.70
2019-04-27T10:03:43.297Z,16.43
2019-04-27T10:06:12.796Z,25.17
2019-04-27T10:08:41.756Z,21.62
2019-04-27T10:14:03.084Z,19.80
2019-04-27T10:16:32.008Z,18.82
2019-04-27T10:19:01.527Z,18.40
2019-04-27T10:21:30.090Z,19.10
2019-04-27T10:23:58.833Z,18.32
2019-04-27T10:26:27.984Z,21.90
2019-04-27T10:28:56.519Z,17.87
2019-04-27T10:31:25.172Z,15.30
2019-04-27T10:33:53.810Z,21.02
2019-04-27T10:36:27.644Z,21.30
2019-04-27T10:38:56.263Z,21.50
2019-04-27T10:41:25.949Z,20.85
2019-04-27T10:43:54.599Z,19.73
2019-04-27T10:46:25.820Z,22.20
2019-04-27T10:48:53.112Z,23.57
2019-04-27T10:51:21.871Z,17.60
2019-04-27T10:53:50.427Z,19.90
2019-04-27T10:56:18.931Z,19.37
2019-04-27T10:58:48.468Z,20.62
2019-04-27T11:01:17.736Z,18.30
2019-04-27T11:03:51.595Z,16.60
2019-04-27T11:06:29.339Z,16.67
2019-04-27T11:08:58.053Z,18.50
2019-04-27T11:11:27.816Z,21.05
2019-04-27T11:13:56.934Z,18.48
2019-04-27T11:16:27.987Z,18.23
2019-04-27T11:18:58.713Z,21.15
2019-04-27T11:21:26.197Z,19.90
2019-04-27T11:23:55.860Z,18.67
2019-04-27T11:26:23.279Z,19.23
2019-04-27T11:28:51.971Z,18.45
2019-04-27T11:31:20.773Z,23.17
2019-04-27T11:33:49.695Z,18.35
2019-04-27T11:36:58.746Z,21.00
2019-04-27T11:39:28.306Z,21.60
2019-04-27T11:41:57.163Z,22.35
2019-04-27T11:44:26.486Z,18.40
2019-04-27T11:46:55.928Z,20.70
2019-04-27T11:49:23.630Z,19.53
2019-04-27T11:51:52.970Z,20.50
2019-04-27T11:54:21.570Z,23.25
2019-04-27T11:56:50.934Z,15.47
2019-04-27T11:59:21.354Z,21.77
2019-04-27T12:01:50.976Z,20.65
2019-04-27T12:04:19.501Z,18.73
2019-04-27T12:06:48.096Z,22.40
2019-04-27T12:09:16.733Z,22.75
2019-04-27T12:11:45.388Z,23.50
2019-04-27T12:14:13.869Z,23.03
2019-04-27T12:16:42.493Z,23.32
2019-04-27T12:19:11.089Z,25.23
2019-04-27T12:21:39.647Z,29.18
2019-04-27T12:24:08.332Z,27.70
2019-04-27T12:26:42.740Z,29.95
2019-04-27T12:29:12.385Z,26.60
2019-04-27T12:31:46.430Z,30.75
2019-04-27T12:34:12.095Z,27.58
2019-04-27T12:36:40.849Z,32.33
2019-04-27T12:39:11.149Z,26.40
2019-04-27T12:41:40.425Z,34.30
2019-04-27T12:44:09.574Z,29.18
2019-04-27T12:46:38.472Z,29.42
2019-04-27T12:49:07.200Z,25.10
2019-04-27T12:51:37.328Z,29.05
2019-04-27T12:54:08.800Z,31.17
2019-04-27T12:56:48.584Z,31.90
2019-04-27T12:59:21.292Z,33.90
2019-04-27T13:01:50.316Z,32.73
2019-04-27T13:04:18.884Z,34.73
2019-04-27T13:06:47.616Z,28.57
2019-04-27T13:09:17.303Z,28.77
2019-04-27T13:11:45.909Z,32.93
2019-04-27T13:16:49.336Z,27.25
2019-04-27T13:19:17.859Z,31.12
2019-04-27T13:21:46.937Z,30.30
2019-04-27T13:24:15.076Z,29.97
2019-04-27T13:26:43.624Z,31.17
2019-04-27T13:29:12.168Z,27.83
2019-04-27T13:31:44.236Z,28.77
2019-04-27T13:34:12.715Z,27.85
2019-04-27T13:36:42.620Z,26.20
2019-04-27T13:39:11.212Z,27.60
2019-04-27T13:41:39.808Z,26.70
2019-04-27T13:44:09.223Z,24.60
2019-04-27T13:47:46.072Z,25.00
2019-04-27T13:50:18.847Z,25.85
2019-04-27T13:52:47.475Z,24.05
2019-04-27T13:55:16.071Z,26.62
2019-04-27T13:57:50.554Z,24.52
2019-04-27T14:00:13.368Z,22.13
2019-04-27T14:02:44.127Z,24.75
2019-04-27T14:05:11.836Z,21.48
2019-04-27T14:07:40.817Z,21.52
2019-04-27T14:10:09.744Z,22.50
2019-04-27T14:12:38.631Z,21.87
2019-04-27T14:15:08.622Z,23.60
2019-04-27T14:17:35.839Z,22.37
2019-04-27T14:20:05.296Z,25.43
2019-04-27T14:22:33.947Z,21.95
2019-04-27T14:25:02.514Z,21.25
2019-04-27T14:27:36.834Z,20.70
2019-04-27T14:30:03.371Z,23.22
2019-04-27T14:32:31.956Z,23.27
2019-04-27T14:35:00.506Z,24.35
2019-04-27T14:37:29.011Z,21.65
2019-04-27T14:39:59.717Z,21.85
2019-04-27T14:42:26.815Z,23.50
2019-04-27T14:44:55.381Z,23.67
2019-04-27T14:47:23.964Z,28.00
2019-04-27T14:49:52.543Z,23.40
2019-04-27T14:52:22.304Z,26.45
2019-04-27T14:54:55.551Z,26.97
2019-04-27T14:57:24.097Z,24.07
2019-04-27T14:59:52.683Z,23.70
2019-04-27T15:02:21.212Z,25.57
2019-04-27T15:04:49.811Z,25.43
2019-04-27T15:07:18.324Z,29.10
2019-04-27T15:09:49.618Z,28.40
2019-04-27T15:12:15.822Z,22.15
2019-04-27T15:14:44.011Z,24.40
2019-04-27T15:17:12.834Z,26.12
2019-04-27T15:19:48.538Z,21.40
2019-04-27T15:22:19.708Z,21.82
2019-04-27T15:24:55.661Z,22.00
2019-04-27T15:27:15.695Z,21.85
2019-04-27T15:29:45.191Z,27.05
2019-04-27T15:32:19.027Z,26.12
2019-04-27T15:35:00.545Z,22.62
2019-04-27T15:37:34.231Z,22.30
2019-04-27T15:40:10.129Z,25.97
2019-04-27T15:42:41.666Z,21.37
2019-04-27T15:45:08.982Z,20.77
2019-04-27T15:47:35.911Z,23.85
2019-04-27T15:50:05.563Z,26.00
2019-04-27T15:52:34.123Z,24.37
2019-04-27T15:55:11.170Z,23.32
2019-04-27T15:57:31.879Z,24.52
2019-04-27T16:00:00.394Z,23.77
2019-04-27T16:02:29.028Z,23.40
2019-04-27T16:04:58.264Z,20.68
2019-04-27T16:07:30.399Z,21.45
2019-04-27T16:09:59.135Z,25.02
2019-04-27T16:12:23.615Z,22.77
2019-04-27T16:14:52.194Z,22.58
2019-04-27T16:17:20.835Z,24.70
2019-04-27T16:19:50.359Z,24.40
2019-04-27T16:22:18.416Z,27.55
2019-04-27T16:24:49.388Z,21.05
2019-04-27T16:27:15.188Z,22.48
2019-04-27T16:29:43.698Z,26.75
2019-04-27T16:32:12.362Z,20.72
2019-04-27T16:34:41.330Z,27.10
2019-04-27T16:37:14.015Z,28.65
2019-04-27T16:39:45.516Z,24.32
2019-04-27T16:42:14.087Z,25.85
2019-04-27T16:44:39.975Z,22.95
2019-04-27T16:47:08.341Z,27.93
2019-04-27T16:52:15.916Z,23.57
2019-04-27T16:54:42.234Z,25.92
2019-04-27T16:57:10.852Z,23.50
2019-04-27T16:59:44.088Z,23.95
2019-04-27T17:02:08.374Z,22.60
2019-04-27T17:04:38.495Z,21.75
2019-04-27T17:07:09.078Z,21.73
2019-04-27T17:09:36.469Z,16.07
2019-04-27T17:12:11.814Z,19.85
2019-04-27T17:14:52.466Z,20.72
2019-04-27T17:17:30.224Z,21.48
2019-04-27T17:20:01.197Z,21.82
2019-04-27T17:22:29.702Z,16.35
2019-04-27T17:24:58.379Z,20.17
2019-04-27T17:27:32.822Z,15.65
2019-04-27T17:30:01.862Z,20.05
2019-04-27T17:32:35.386Z,31.68
2019-04-27T17:35:07.379Z,30.55
2019-04-27T17:37:34.208Z,32.08
2019-04-27T17:40:03.509Z,26.20
2019-04-27T17:42:32.090Z,29.00
2019-04-27T17:45:01.144Z,19.42
2019-04-27T17:47:31.499Z,18.27
2019-04-27T17:50:00.552Z,19.75
2019-04-27T17:52:29.142Z,17.27
2019-04-27T17:54:59.009Z,21.05
2019-04-27T17:57:30.121Z,18.23
2019-04-27T18:00:01.559Z,23.12
2019-04-27T18:02:24.634Z,15.05
2019-04-27T18:04:53.214Z,16.17
2019-04-27T18:07:21.734Z,16.07
2019-04-27T18:09:51.594Z,12.85
2019-04-27T18:12:20.312Z,10.88
2019-04-27T18:14:48.948Z,14.80
2019-04-27T18:17:19.620Z,17.98
2019-04-27T18:19:50.226Z,10.82
2019-04-27T18:22:20.023Z,12.18
2019-04-27T18:24:55.627Z,11.15
2019-04-27T18:27:26.950Z,10.20
2019-04-27T18:30:03.294Z,12.07
2019-04-27T18:32:28.749Z,12.20
2019-04-27T18:34:58.458Z,8.85
2019-04-27T18:37:25.601Z,9.83
2019-04-27T18:39:55.021Z,11.97
2019-04-27T18:42:23.336Z,12.30
2019-04-27T18:47:27.269Z,9.85
2019-04-27T18:50:11.001Z,11.40
2019-04-27T18:52:47.640Z,9.48
2019-04-27T18:55:16.716Z,10.47
2019-04-27T18:57:45.892Z,12.28
2019-04-27T19:00:12.509Z,10.25
2019-04-27T19:02:41.594Z,10.95
2019-04-27T19:19:10.833Z,11.08
2019-04-27T19:21:39.575Z,16.67
2019-04-27T19:24:08.892Z,12.23
2019-04-27T19:26:43.815Z,12.07
2019-04-27T19:29:19.431Z,12.58
2019-04-27T19:31:51.575Z,13.43
2019-04-27T19:34:20.162Z,13.83
2019-04-27T19:36:49.040Z,15.35
2019-04-27T19:39:18.144Z,12.03
2019-04-27T19:41:56.614Z,13.65
2019-04-27T19:44:18.767Z,12.63
2019-04-27T19:46:49.031Z,11.48
2019-04-27T19:49:16.043Z,13.13
2019-04-27T19:51:44.718Z,11.88
2019-04-27T19:54:13.351Z,13.32
2019-04-27T19:56:41.938Z,12.18
2019-04-27T19:59:18.633Z,12.58
2019-04-27T20:01:48.131Z,14.47
2019-04-27T20:06:50.966Z,13.32
2019-04-27T20:09:24.434Z,12.87
2019-04-27T20:11:53.054Z,13.75
2019-04-27T20:14:21.666Z,15.05
2019-04-27T20:16:51.921Z,13.28
2019-04-27T20:19:18.934Z,12.10
2019-04-27T20:21:47.570Z,10.98
2019-04-27T20:24:16.720Z,12.70
2019-04-27T20:26:45.287Z,13.30
2019-04-27T20:29:13.790Z,14.15
2019-04-27T20:31:43.194Z,12.25
2019-04-27T20:34:11.862Z,10.98
2019-04-27T20:36:41.568Z,18.25
2019-04-27T20:39:11.605Z,16.24
2019-04-27T20:41:38.710Z,13.75
2019-04-27T20:44:07.530Z,13.88
2019-04-27T20:46:36.057Z,16.90
2019-04-27T20:54:01.790Z,16.82
2019-04-27T20:56:30.259Z,10.75
2019-04-27T20:59:00.825Z,15.13
2019-04-27T21:01:28.670Z,13.40
2019-04-27T21:03:57.334Z,14.30
2019-04-27T21:06:33.052Z,14.35
2019-04-27T21:09:03.004Z,13.15
2019-04-27T21:11:34.301Z,15.80
2019-04-27T21:14:02.809Z,13.60
2019-04-27T21:16:31.436Z,14.07
2019-04-27T21:19:02.030Z,12.03
2019-04-27T21:21:30.277Z,12.03
2019-04-27T21:24:06.724Z,12.03
2019-04-27T21:26:35.256Z,16.20
2019-04-27T21:29:04.068Z,15.15
2019-04-27T21:31:32.620Z,15.03
2019-04-27T21:34:01.312Z,12.25
2019-04-27T21:36:30.973Z,11.93
2019-04-27T21:38:58.600Z,12.85
2019-04-27T21:41:27.273Z,11.43
2019-04-27T21:43:55.811Z,14.63
2019-04-27T21:46:24.371Z,15.60
2019-04-27T21:51:29.751Z,18.98
2019-04-27T21:54:03.071Z,18.12
2019-04-27T21:56:31.691Z,15.43
2019-04-27T21:59:01.076Z,12.23
2019-04-27T22:01:32.615Z,10.20
2019-04-27T22:04:01.292Z,9.93
2019-04-27T22:06:29.904Z,12.73
2019-04-27T22:08:58.489Z,12.25
2019-04-27T22:11:27.031Z,8.95
2019-04-27T22:13:56.051Z,10.15
2019-04-27T22:16:24.638Z,10.05
2019-04-27T22:18:53.183Z,8.93
2019-04-27T22:21:22.243Z,7.12
2019-04-27T22:24:24.651Z,7.90
2019-04-27T22:26:53.347Z,7.80
2019-04-27T22:31:56.904Z,14.90
2019-04-27T22:34:25.464Z,11.03
2019-04-27T22:36:54.023Z,10.10
2019-04-27T22:39:27.256Z,8.63
2019-04-27T22:42:01.773Z,8.00
2019-04-27T22:47:04.747Z,10.25
2019-04-27T22:49:34.204Z,13.08
2019-04-27T22:52:02.827Z,8.10
2019-04-27T22:54:31.917Z,10.58
2019-04-27T22:57:01.596Z,8.15
2019-04-27T22:59:41.234Z,9.50
2019-04-27T23:02:19.132Z,9.93
2019-04-27T23:04:51.593Z,14.30
2019-04-27T23:07:21.148Z,9.23
2019-04-27T23:09:51.474Z,9.38
2019-04-27T23:12:17.820Z,12.90
2019-04-27T23:14:46.344Z,10.63
2019-04-27T23:17:20.056Z,10.25
2019-04-27T23:19:48.728Z,10.60
2019-04-27T23:22:17.240Z,9.85
2019-04-27T23:24:45.804Z,10.73
2019-04-27T23:27:15.392Z,9.73
2019-04-27T23:29:42.944Z,10.25
2019-04-27T23:32:15.743Z,10.28
2019-04-27T23:34:44.323Z,11.60
2019-04-27T23:37:12.835Z,12.90
2019-04-27T23:39:41.372Z,10.08
2019-04-27T23:42:11.551Z,8.90
2019-04-27T23:44:39.255Z,10.88
2019-04-27T23:47:08.363Z,10.43
2019-04-27T23:49:36.895Z,12.63
2019-04-27T23:52:11.883Z,8.88
2019-04-27T23:54:42.766Z,7.83
2019-04-27T23:57:09.211Z,8.40
2019-04-27T23:59:37.787Z,8.50
